Time,TemperatureF,DewpointF,PressureIn,WindDirection,WindDirectionDegrees,WindSpeedMPH,WindSpeedGustMPH,Humidity,HourlyPrecipIn,Conditions,Clouds,dailyrainin,SoftwareType,DateUTC
2013-03-10 00:00:00,32.9,20.5,30.24,ESE,110,0.0,0.0,60,0.00,,CLR,0.00,VWS V14.00,2013-03-10 05:00:00,
2013-03-10 00:01:00,32.9,20.5,30.24,ESE,110,0.0,0.0,60,0.00,,CLR,0.00,VWS V14.00,2013-03-10 05:01:00,
2013-03-10 00:06:00,32.7,20.8,30.21,ESE,110,0.0,0.0,61,0.00,,CLR,0.00,VWS V14.00,2013-03-10 05:06:00,
2013-03-10 00:11:00,32.7,21.1,30.21,ESE,110,0.0,0.0,62,0.00,,CLR,0.00,VWS V14.00,2013-03-10 05:11:00,
2013-03-10 00:16:00,32.7,21.1,30.21,ESE,110,3.0,3.2,62,0.00,,CLR,0.00,VWS V14.00,2013-03-10 05:16:00,
2013-03-10 00:21:00,32.5,21.3,30.21,ESE,110,0.0,0.0,63,0.00,,CLR,0.00,VWS V14.00,2013-03-10 05:21:00,
2013-03-10 00:27:00,32.3,21.2,30.21,ESE,110,0.0,0.0,63,0.00,,CLR,0.00,VWS V14.00,2013-03-10 05:27:00,
2013-03-10 00:32:00,32.3,21.2,30.21,ESE,110,2.5,2.7,63,0.00,,CLR,0.00,VWS V14.00,2013-03-10 05:32:00,
2013-03-10 00:37:00,32.2,21.0,30.24,ESE,110,2.5,2.7,63,0.00,,CLR,0.00,VWS V14.00,2013-03-10 05:37:00,
2013-03-10 00:42:00,32.0,20.8,30.24,ESE,110,2.5,2.7,63,0.00,,CLR,0.00,VWS V14.00,2013-03-10 05:42:00,
2013-03-10 00:47:00,31.8,21.0,30.24,ESE,110,0.0,0.0,64,0.00,,CLR,0.00,VWS V14.00,2013-03-10 05:47:00,
2013-03-10 00:52:00,31.6,20.8,30.21,ESE,110,0.0,0.0,64,0.00,,CLR,0.00,VWS V14.00,2013-03-10 05:52:00,
2013-03-10 00:57:00,32.0,21.2,30.21,ESE,110,0.0,0.0,64,0.00,,CLR,0.00,VWS V14.00,2013-03-10 05:57:00,
2013-03-10 00:59:00,30.5,21.5,30.21,ESE,110,0.0,0.0,69,0.00,,OVC110,0.00,VWS V14.00,2013-03-10 05:59:00,
2013-03-10 01:02:00,31.8,21.4,30.21,ESE,110,0.0,0.0,65,0.00,,CLR,0.00,VWS V14.00,2013-03-10 06:02:00,
2013-03-10 01:07:00,31.8,21.7,30.21,ESE,110,0.0,0.0,66,0.00,,OVC110,0.00,VWS V14.00,2013-03-10 06:07:00,
2013-03-10 01:12:00,31.8,21.7,30.21,ESE,110,0.0,0.0,66,0.00,,OVC110,0.00,VWS V14.00,2013-03-10 06:12:00,
2013-03-10 01:17:00,31.6,21.5,30.21,ESE,110,0.0,0.0,66,0.00,,OVC110,0.00,VWS V14.00,2013-03-10 06:17:00,
2013-03-10 01:22:00,31.4,21.4,30.21,ESE,110,0.0,0.0,66,0.00,,OVC110,0.00,VWS V14.00,2013-03-10 06:22:00,
2013-03-10 01:27:00,31.0,21.4,30.21,ESE,110,2.5,3.2,67,0.00,,OVC110,0.00,VWS V14.00,2013-03-10 06:27:00,
2013-03-10 01:32:00,30.9,21.5,30.21,ESE,110,0.0,0.0,68,0.00,,OVC110,0.00,VWS V14.00,2013-03-10 06:32:00,
2013-03-10 01:37:00,30.9,21.5,30.21,ESE,110,0.0,0.0,68,0.00,,OVC110,0.00,VWS V14.00,2013-03-10 06:37:00,
2013-03-10 01:42:00,30.9,21.5,30.21,ESE,110,0.0,0.0,68,0.00,,OVC110,0.00,VWS V14.00,2013-03-10 06:42:00,
2013-03-10 01:47:00,30.7,21.4,30.21,ESE,110,0.0,0.0,68,0.00,,OVC110,0.00,VWS V14.00,2013-03-10 06:47:00,
2013-03-10 01:53:00,30.7,21.7,30.21,ESE,110,0.0,0.0,69,0.00,,OVC110,0.00,VWS V14.00,2013-03-10 06:53:00,
2013-03-10 01:58:00,30.5,21.5,30.21,ESE,110,2.5,2.7,69,0.00,,OVC110,0.00,VWS V14.00,2013-03-10 06:58:00,
2013-03-10 03:03:00,30.3,21.7,30.21,ESE,110,0.0,0.0,70,0.00,,FEW110,0.00,VWS V14.00,2013-03-10 07:03:00,
2013-03-10 03:08:00,29.9,21.7,30.21,ESE,110,0.0,0.0,71,0.00,,FEW110,0.00,VWS V14.00,2013-03-10 07:08:00,
2013-03-10 03:13:00,29.9,21.7,30.21,ESE,110,0.0,0.0,71,0.00,,FEW110,0.00,VWS V14.00,2013-03-10 07:13:00,
2013-03-10 03:18:00,29.9,21.7,30.21,ESE,110,0.0,0.0,71,0.00,,FEW110,0.00,VWS V14.00,2013-03-10 07:18:00,
2013-03-10 03:23:00,29.9,21.7,30.21,ESE,110,0.0,0.0,71,0.00,,FEW110,0.00,VWS V14.00,2013-03-10 07:23:00,
2013-03-10 03:28:00,30.1,22.2,30.21,ESE,110,0.0,0.0,72,0.00,,FEW110,0.00,VWS V14.00,2013-03-10 07:28:00,
2013-03-10 03:33:00,30.1,22.2,30.21,ESE,110,0.0,0.0,72,0.00,,FEW110,0.00,VWS V14.00,2013-03-10 07:33:00,
2013-03-10 03:38:00,29.9,22.3,30.21,ESE,110,0.0,0.0,73,0.00,,FEW110,0.00,VWS V14.00,2013-03-10 07:38:00,
2013-03-10 03:43:00,29.9,22.0,30.21,ESE,110,0.0,0.0,72,0.00,,FEW110,0.00,VWS V14.00,2013-03-10 07:43:00,
2013-03-10 03:49:00,29.9,22.0,30.21,ESE,110,2.5,2.7,72,0.00,,FEW110,0.00,VWS V14.00,2013-03-10 07:49:00,
2013-03-10 03:54:00,29.5,22.0,30.21,ESE,110,3.0,3.8,73,0.00,,FEW110,0.00,VWS V14.00,2013-03-10 07:54:00,
2013-03-10 03:59:00,29.4,22.1,30.21,ESE,110,3.0,3.8,74,0.00,,FEW110,0.00,VWS V14.00,2013-03-10 07:59:00,
2013-03-10 04:04:00,29.4,22.4,30.21,ESE,110,3.4,3.8,75,0.00,,CLR,0.00,VWS V14.00,2013-03-10 08:04:00,
2013-03-10 04:09:00,29.5,22.6,30.21,ESE,110,0.0,2.7,75,0.00,,CLR,0.00,VWS V14.00,2013-03-10 08:09:00,
2013-03-10 04:14:00,28.8,21.9,30.21,ESE,110,0.0,0.0,75,0.00,,CLR,0.00,VWS V14.00,2013-03-10 08:14:00,
2013-03-10 04:19:00,29.2,22.6,30.21,ESE,110,0.0,0.0,76,0.00,,CLR,0.00,VWS V14.00,2013-03-10 08:19:00,
2013-03-10 04:24:00,29.4,22.4,30.21,ESE,110,0.0,0.0,75,0.00,,CLR,0.00,VWS V14.00,2013-03-10 08:24:00,
2013-03-10 04:29:00,29.2,22.3,30.21,ESE,110,0.0,0.0,75,0.00,,CLR,0.00,VWS V14.00,2013-03-10 08:29:00,
2013-03-10 04:34:00,29.4,22.4,30.21,ESE,110,0.0,0.0,75,0.00,,CLR,0.00,VWS V14.00,2013-03-10 08:34:00,
2013-03-10 04:39:00,29.2,22.3,30.21,ESE,110,2.5,2.7,75,0.00,,CLR,0.00,VWS V14.00,2013-03-10 08:39:00,
2013-03-10 04:45:00,29.0,22.1,30.21,ESE,110,0.0,0.0,75,0.00,,CLR,0.00,VWS V14.00,2013-03-10 08:45:00,
2013-03-10 04:50:00,29.0,22.4,30.21,ESE,110,0.0,2.7,76,0.00,,CLR,0.00,VWS V14.00,2013-03-10 08:50:00,
2013-03-10 04:55:00,28.6,22.0,30.21,ESE,110,0.0,0.0,76,0.00,,CLR,0.00,VWS V14.00,2013-03-10 08:55:00,
2013-03-10 05:00:00,28.2,22.0,30.21,ESE,110,2.5,3.2,77,0.00,,CLR,0.00,VWS V14.00,2013-03-10 09:00:00,
2013-03-10 05:05:00,28.4,22.2,30.18,ESE,110,0.0,0.0,77,0.00,,CLR,0.00,VWS V14.00,2013-03-10 09:05:00,
2013-03-10 05:10:00,28.4,22.2,30.18,ESE,110,0.0,0.0,77,0.00,,CLR,0.00,VWS V14.00,2013-03-10 09:10:00,
2013-03-10 05:15:00,28.4,22.2,30.18,ESE,110,2.5,2.7,77,0.00,,CLR,0.00,VWS V14.00,2013-03-10 09:15:00,
2013-03-10 05:20:00,28.4,22.2,30.18,ESE,110,2.5,2.7,77,0.00,,CLR,0.00,VWS V14.00,2013-03-10 09:20:00,
2013-03-10 05:25:00,28.4,22.2,30.18,ESE,110,0.0,2.7,77,0.00,,CLR,0.00,VWS V14.00,2013-03-10 09:25:00,
2013-03-10 05:30:00,28.4,22.2,30.18,ESE,110,2.5,3.2,77,0.00,,CLR,0.00,VWS V14.00,2013-03-10 09:30:00,
2013-03-10 05:35:00,28.4,22.2,30.18,ESE,110,3.0,3.2,77,0.00,,CLR,0.00,VWS V14.00,2013-03-10 09:35:00,
2013-03-10 05:40:00,28.2,22.0,30.18,ESE,110,3.0,3.2,77,0.00,,CLR,0.00,VWS V14.00,2013-03-10 09:40:00,
2013-03-10 05:45:00,28.2,22.0,30.18,ESE,110,2.5,2.7,77,0.00,,CLR,0.00,VWS V14.00,2013-03-10 09:45:00,
2013-03-10 05:50:00,28.2,22.0,30.18,ESE,110,3.0,3.2,77,0.00,,CLR,0.00,VWS V14.00,2013-03-10 09:50:00,
2013-03-10 05:55:00,28.2,22.0,30.18,ESE,110,2.5,2.7,77,0.00,,CLR,0.00,VWS V14.00,2013-03-10 09:55:00,
2013-03-10 06:00:00,28.2,22.0,30.18,ESE,110,0.0,0.0,77,0.00,,CLR,0.00,VWS V14.00,2013-03-10 10:00:00,
2013-03-10 06:05:00,28.2,22.0,30.21,ESE,110,0.0,0.0,77,0.00,,BKN095,0.00,VWS V14.00,2013-03-10 10:05:00,
2013-03-10 06:10:00,28.2,22.0,30.21,ESE,110,0.0,0.0,77,0.00,,BKN095,0.00,VWS V14.00,2013-03-10 10:10:00,
2013-03-10 06:16:00,28.1,21.8,30.21,ESE,110,0.0,0.0,77,0.00,,BKN095,0.00,VWS V14.00,2013-03-10 10:16:00,
2013-03-10 06:21:00,27.9,21.9,30.21,ESE,110,2.5,3.2,78,0.00,,BKN095,0.00,VWS V14.00,2013-03-10 10:21:00,
2013-03-10 06:26:00,27.7,21.7,30.21,ESE,110,0.0,0.0,78,0.00,,BKN095,0.00,VWS V14.00,2013-03-10 10:26:00,
2013-03-10 06:31:00,27.7,21.7,30.21,ESE,110,2.5,3.2,78,0.00,,BKN095,0.00,VWS V14.00,2013-03-10 10:31:00,
2013-03-10 06:36:00,27.7,22.0,30.21,ESE,110,0.0,0.0,79,0.00,,BKN095,0.00,VWS V14.00,2013-03-10 10:36:00,
2013-03-10 06:41:00,27.7,22.0,30.21,ESE,110,0.0,0.0,79,0.00,,BKN095,0.00,VWS V14.00,2013-03-10 10:41:00,
2013-03-10 06:46:00,27.7,21.7,30.21,ESE,110,0.0,0.0,78,0.00,,BKN095,0.00,VWS V14.00,2013-03-10 10:46:00,
2013-03-10 06:51:00,27.5,21.9,30.21,ESE,110,0.0,0.0,79,0.00,,BKN095,0.00,VWS V14.00,2013-03-10 10:51:00,
2013-03-10 06:56:00,27.7,22.0,30.21,ESE,110,0.0,0.0,79,0.00,,BKN095,0.00,VWS V14.00,2013-03-10 10:56:00,
2013-03-10 07:01:00,27.7,22.0,30.21,ESE,110,0.0,0.0,79,0.00,,BKN095,0.00,VWS V14.00,2013-03-10 11:01:00,
2013-03-10 07:06:00,27.5,21.9,30.21,ESE,110,0.0,0.0,79,0.00,,OVC110,0.00,VWS V14.00,2013-03-10 11:06:00,
2013-03-10 07:11:00,27.5,21.9,30.21,ESE,110,0.0,0.0,79,0.00,,OVC110,0.00,VWS V14.00,2013-03-10 11:11:00,
2013-03-10 07:16:00,27.5,21.9,30.21,ESE,110,0.0,0.0,79,0.00,,OVC110,0.00,VWS V14.00,2013-03-10 11:16:00,
2013-03-10 07:21:00,27.5,21.9,30.21,SSE,161,3.0,3.2,79,0.00,,OVC110,0.00,VWS V14.00,2013-03-10 11:21:00,
2013-03-10 07:26:00,27.1,21.5,30.21,West,267,3.4,3.8,79,0.00,,OVC110,0.00,VWS V14.00,2013-03-10 11:26:00,
2013-03-10 07:32:00,27.0,21.3,30.21,West,269,0.0,0.0,79,0.00,,OVC110,0.00,VWS V14.00,2013-03-10 11:32:00,
2013-03-10 07:37:00,27.0,21.6,30.21,West,269,0.0,0.0,80,0.00,,OVC110,0.00,VWS V14.00,2013-03-10 11:37:00,
2013-03-10 07:42:00,27.0,21.6,30.21,West,269,0.0,0.0,80,0.00,,OVC110,0.00,VWS V14.00,2013-03-10 11:42:00,
2013-03-10 07:47:00,27.1,21.8,30.21,West,269,2.5,3.2,80,0.00,,OVC110,0.00,VWS V14.00,2013-03-10 11:47:00,
2013-03-10 07:52:00,27.1,21.8,30.21,West,269,2.5,3.8,80,0.00,,OVC110,0.00,VWS V14.00,2013-03-10 11:52:00,
2013-03-10 07:57:00,27.1,21.8,30.21,SW,223,2.5,3.2,80,0.00,,OVC110,0.00,VWS V14.00,2013-03-10 11:57:00,
2013-03-10 08:02:00,27.3,22.3,30.21,ESE,118,0.0,3.2,81,0.00,,OVC110,0.00,VWS V14.00,2013-03-10 12:02:00,
2013-03-10 08:07:00,27.3,22.0,30.21,ESE,118,0.0,3.2,80,0.00,,OVC110,0.00,VWS V14.00,2013-03-10 12:07:00,
2013-03-10 08:12:00,27.5,22.5,30.21,ESE,118,0.0,2.7,81,0.00,,OVC110,0.00,VWS V14.00,2013-03-10 12:12:00,
2013-03-10 08:17:00,27.7,22.6,30.21,ESE,118,0.0,3.2,81,0.00,,OVC110,0.00,VWS V14.00,2013-03-10 12:17:00,
2013-03-10 08:22:00,27.7,22.6,30.21,ESE,118,0.0,2.7,81,0.00,,OVC110,0.00,VWS V14.00,2013-03-10 12:22:00,
2013-03-10 08:27:00,27.9,22.8,30.21,ESE,119,0.0,0.0,81,0.00,,OVC110,0.00,VWS V14.00,2013-03-10 12:27:00,
2013-03-10 08:32:00,27.9,22.8,30.21,ESE,118,0.0,0.0,81,0.00,,OVC110,0.00,VWS V14.00,2013-03-10 12:32:00,
2013-03-10 08:37:00,27.9,22.8,30.21,ESE,118,2.5,2.7,81,0.00,,OVC110,0.00,VWS V14.00,2013-03-10 12:37:00,
2013-03-10 08:43:00,27.9,22.8,30.21,ESE,118,0.0,0.0,81,0.00,,OVC110,0.00,VWS V14.00,2013-03-10 12:43:00,
2013-03-10 08:48:00,28.1,23.0,30.21,ESE,118,0.0,0.0,81,0.00,,OVC110,0.00,VWS V14.00,2013-03-10 12:48:00,
2013-03-10 08:53:00,28.2,23.2,30.21,ESE,118,0.0,0.0,81,0.00,,OVC110,0.00,VWS V14.00,2013-03-10 12:53:00,
2013-03-10 08:58:00,28.4,23.4,30.21,ESE,118,0.0,0.0,81,0.00,,OVC110,0.00,VWS V14.00,2013-03-10 12:58:00,
2013-03-10 09:03:00,29.2,24.1,30.21,ESE,118,0.0,2.7,81,0.00,,BKN100,0.00,VWS V14.00,2013-03-10 13:03:00,
2013-03-10 09:08:00,30.1,25.3,30.21,ESE,118,0.0,0.0,82,0.00,,BKN100,0.00,VWS V14.00,2013-03-10 13:08:00,
2013-03-10 09:13:00,30.9,26.3,30.21,ESE,118,3.0,3.2,83,0.00,,BKN100,0.00,VWS V14.00,2013-03-10 13:13:00,
2013-03-10 09:18:00,31.8,27.2,30.21,ESE,111,2.5,2.7,83,0.00,,BKN100,0.00,VWS V14.00,2013-03-10 13:18:00,
2013-03-10 09:23:00,32.0,27.1,30.21,WNW,285,3.9,4.8,82,0.00,,BKN100,0.00,VWS V14.00,2013-03-10 13:23:00,
2013-03-10 09:28:00,32.2,27.0,30.21,NW,315,0.0,0.0,81,0.00,,BKN100,0.00,VWS V14.00,2013-03-10 13:28:00,
2013-03-10 09:33:00,32.2,26.7,30.24,WNW,301,4.4,4.8,80,0.00,,BKN100,0.00,VWS V14.00,2013-03-10 13:33:00,
2013-03-10 09:38:00,32.5,26.7,30.24,WNW,295,2.5,3.2,79,0.00,,BKN100,0.00,VWS V14.00,2013-03-10 13:38:00,
2013-03-10 09:43:00,32.9,27.1,30.24,WNW,295,0.0,0.0,79,0.00,,BKN100,0.00,VWS V14.00,2013-03-10 13:43:00,
2013-03-10 09:48:00,33.1,27.0,30.24,WNW,295,2.5,2.7,78,0.00,,BKN100,0.00,VWS V14.00,2013-03-10 13:48:00,
2013-03-10 09:54:00,33.4,27.3,30.24,WNW,295,2.5,2.7,78,0.00,,BKN100,0.00,VWS V14.00,2013-03-10 13:54:00,
2013-03-10 09:59:00,33.6,27.5,30.24,WNW,295,3.0,3.8,78,0.00,,BKN100,0.00,VWS V14.00,2013-03-10 13:59:00,
2013-03-10 10:04:00,33.8,27.7,30.24,WNW,295,0.0,0.0,78,0.00,,OVC110,0.00,VWS V14.00,2013-03-10 14:04:00,
2013-03-10 10:09:00,34.6,28.1,30.24,WNW,295,0.0,2.7,77,0.00,,OVC110,0.00,VWS V14.00,2013-03-10 14:09:00,
2013-03-10 10:14:00,34.9,27.8,30.24,WNW,295,3.4,3.8,75,0.00,,OVC110,0.00,VWS V14.00,2013-03-10 14:14:00,
2013-03-10 10:19:00,35.5,28.0,30.24,NW,315,3.0,4.8,74,0.00,,OVC110,0.00,VWS V14.00,2013-03-10 14:19:00,
2013-03-10 10:24:00,35.5,27.7,30.24,NW,305,2.5,3.8,73,0.00,,OVC110,0.00,VWS V14.00,2013-03-10 14:24:00,
2013-03-10 10:29:00,35.8,27.7,30.24,NW,305,0.0,0.0,72,0.00,,OVC110,0.00,VWS V14.00,2013-03-10 14:29:00,
2013-03-10 10:34:00,35.8,27.7,30.24,NW,305,3.0,3.2,72,0.00,,OVC110,0.00,VWS V14.00,2013-03-10 14:34:00,
2013-03-10 10:39:00,36.0,27.6,30.24,NW,316,3.0,3.8,71,0.00,,OVC110,0.00,VWS V14.00,2013-03-10 14:39:00,
2013-03-10 10:45:00,36.2,27.0,30.24,NW,316,3.9,4.3,69,0.00,,OVC110,0.00,VWS V14.00,2013-03-10 14:45:00,
2013-03-10 10:50:00,36.2,27.4,30.24,NW,311,2.5,3.2,70,0.00,,OVC110,0.00,VWS V14.00,2013-03-10 14:50:00,
2013-03-10 10:55:00,36.4,27.9,30.24,NW,311,0.0,0.0,71,0.00,,OVC110,0.00,VWS V14.00,2013-03-10 14:55:00,
2013-03-10 11:00:00,36.6,28.1,30.24,NW,311,0.0,2.7,71,0.00,,OVC110,0.00,VWS V14.00,2013-03-10 15:00:00,
2013-03-10 11:05:00,37.0,28.5,30.24,NW,311,3.4,3.8,71,0.00,,CLR,0.00,VWS V14.00,2013-03-10 15:05:00,
2013-03-10 11:10:00,37.2,29.0,30.24,NW,317,3.4,4.3,72,0.00,,CLR,0.00,VWS V14.00,2013-03-10 15:10:00,
2013-03-10 11:15:00,37.5,29.0,30.24,NW,317,3.0,3.8,71,0.00,,CLR,0.00,VWS V14.00,2013-03-10 15:15:00,
2013-03-10 11:20:00,37.9,29.3,30.24,NW,317,2.5,3.2,71,0.00,,CLR,0.00,VWS V14.00,2013-03-10 15:20:00,
2013-03-10 11:25:00,38.1,29.2,30.24,NW,317,3.0,3.2,70,0.00,,CLR,0.00,VWS V14.00,2013-03-10 15:25:00,
2013-03-10 11:30:00,38.3,29.0,30.24,NW,307,3.0,4.3,69,0.00,,CLR,0.00,VWS V14.00,2013-03-10 15:30:00,
2013-03-10 11:35:00,38.8,29.2,30.24,NW,304,3.0,3.2,68,0.00,,CLR,0.00,VWS V14.00,2013-03-10 15:35:00,
2013-03-10 11:41:00,39.0,29.0,30.24,NW,304,0.0,2.7,67,0.00,,CLR,0.00,VWS V14.00,2013-03-10 15:41:00,
2013-03-10 11:46:00,39.4,29.0,30.24,NW,304,3.0,3.2,66,0.00,,CLR,0.00,VWS V14.00,2013-03-10 15:46:00,
2013-03-10 11:51:00,39.6,29.2,30.21,NW,305,3.0,3.2,66,0.00,,CLR,0.00,VWS V14.00,2013-03-10 15:51:00,
2013-03-10 11:56:00,39.9,29.1,30.21,NW,305,3.0,3.2,65,0.00,,CLR,0.00,VWS V14.00,2013-03-10 15:56:00,
2013-03-10 12:01:00,40.3,29.5,30.21,NW,305,3.0,3.2,65,0.00,,CLR,0.00,VWS V14.00,2013-03-10 16:01:00,
2013-03-10 12:06:00,40.9,29.6,30.21,NW,305,2.5,3.2,64,0.00,,CLR,0.00,VWS V14.00,2013-03-10 16:06:00,
2013-03-10 12:11:00,41.2,29.2,30.21,NW,305,0.0,3.2,62,0.00,,CLR,0.00,VWS V14.00,2013-03-10 16:11:00,
2013-03-10 12:16:00,41.8,29.7,30.21,NW,305,2.5,2.7,62,0.00,,CLR,0.00,VWS V14.00,2013-03-10 16:16:00,
2013-03-10 12:21:00,42.2,29.7,30.21,WNW,293,2.5,2.7,61,0.00,,CLR,0.00,VWS V14.00,2013-03-10 16:21:00,
2013-03-10 12:26:00,42.9,30.4,30.21,WNW,293,0.0,0.0,61,0.00,,CLR,0.00,VWS V14.00,2013-03-10 16:26:00,
2013-03-10 12:31:00,43.8,30.9,30.21,WNW,293,0.0,2.7,60,0.00,,CLR,0.00,VWS V14.00,2013-03-10 16:31:00,
2013-03-10 12:36:00,44.4,31.4,30.21,WNW,293,2.5,3.2,60,0.00,,CLR,0.00,VWS V14.00,2013-03-10 16:36:00,
2013-03-10 12:41:00,45.3,31.8,30.21,WNW,293,2.5,3.8,59,0.00,,CLR,0.00,VWS V14.00,2013-03-10 16:41:00,
2013-03-10 12:47:00,46.0,30.8,30.21,WNW,285,3.4,3.8,55,0.00,,CLR,0.00,VWS V14.00,2013-03-10 16:47:00,
2013-03-10 12:52:00,46.6,31.3,30.21,West,280,0.0,0.0,55,0.00,,CLR,0.00,VWS V14.00,2013-03-10 16:52:00,
2013-03-10 12:57:00,47.3,31.1,30.21,West,280,0.0,0.0,53,0.00,,CLR,0.00,VWS V14.00,2013-03-10 16:57:00,
2013-03-10 13:02:00,48.1,31.3,30.21,West,280,0.0,0.0,52,0.00,,CLR,0.00,VWS V14.00,2013-03-10 17:02:00,
2013-03-10 13:07:00,49.2,31.9,30.21,NW,313,2.5,3.2,51,0.00,,CLR,0.00,VWS V14.00,2013-03-10 17:07:00,
2013-03-10 13:12:00,49.8,31.4,30.21,NW,307,3.9,5.9,49,0.00,,CLR,0.00,VWS V14.00,2013-03-10 17:12:00,
2013-03-10 13:17:00,50.7,31.2,30.18,NNW,337,3.9,4.3,47,0.00,,CLR,0.00,VWS V14.00,2013-03-10 17:17:00,
2013-03-10 13:22:00,51.4,30.8,30.18,WNW,282,3.0,3.2,45,0.00,,CLR,0.00,VWS V14.00,2013-03-10 17:22:00,
2013-03-10 13:27:00,51.4,31.9,30.18,West,265,3.0,3.2,47,0.00,,CLR,0.00,VWS V14.00,2013-03-10 17:27:00,
2013-03-10 13:32:00,52.7,32.0,30.18,WSW,258,3.9,4.8,45,0.00,,CLR,0.00,VWS V14.00,2013-03-10 17:32:00,
2013-03-10 13:37:00,53.1,31.8,30.18,West,277,3.0,3.8,44,0.00,,CLR,0.00,VWS V14.00,2013-03-10 17:37:00,
2013-03-10 13:43:00,53.7,31.7,30.18,NW,316,3.4,4.8,43,0.00,,CLR,0.00,VWS V14.00,2013-03-10 17:43:00,
2013-03-10 13:48:00,54.4,31.8,30.18,WNW,286,5.4,5.9,42,0.00,,CLR,0.00,VWS V14.00,2013-03-10 17:48:00,
2013-03-10 13:53:00,55.3,33.2,30.18,WSW,250,3.4,7.5,43,0.00,,CLR,0.00,VWS V14.00,2013-03-10 17:53:00,
2013-03-10 13:58:00,55.3,32.0,30.18,WNW,303,3.9,4.8,41,0.00,,CLR,0.00,VWS V14.00,2013-03-10 17:58:00,
2013-03-10 14:03:00,55.3,30.8,30.15,NNW,329,4.4,4.8,39,0.00,,CLR,0.00,VWS V14.00,2013-03-10 18:03:00,
2013-03-10 14:08:00,55.3,31.4,30.15,WNW,296,5.9,7.0,40,0.00,,CLR,0.00,VWS V14.00,2013-03-10 18:08:00,
2013-03-10 14:13:00,55.7,31.8,30.15,WNW,302,5.9,6.4,40,0.00,,CLR,0.00,VWS V14.00,2013-03-10 18:13:00,
2013-03-10 14:18:00,56.1,31.5,30.15,WNW,297,3.9,6.4,39,0.00,,CLR,0.00,VWS V14.00,2013-03-10 18:18:00,
2013-03-10 14:23:00,56.8,32.1,30.15,NW,310,6.9,7.5,39,0.00,,CLR,0.00,VWS V14.00,2013-03-10 18:23:00,
2013-03-10 14:28:00,57.0,32.3,30.15,NW,313,6.9,7.5,39,0.00,,CLR,0.00,VWS V14.00,2013-03-10 18:28:00,
2013-03-10 14:33:00,56.6,32.0,30.15,NW,304,5.4,7.0,39,0.00,,CLR,0.00,VWS V14.00,2013-03-10 18:33:00,
2013-03-10 14:38:00,57.2,32.5,30.15,NW,306,6.9,8.6,39,0.00,,CLR,0.00,VWS V14.00,2013-03-10 18:38:00,
2013-03-10 14:43:00,57.5,32.2,30.15,West,275,6.9,7.5,38,0.00,,CLR,0.00,VWS V14.00,2013-03-10 18:43:00,
2013-03-10 14:49:00,58.7,33.1,30.15,NW,314,3.0,4.8,38,0.00,,CLR,0.00,VWS V14.00,2013-03-10 18:49:00,
2013-03-10 14:54:00,58.8,33.3,30.15,SSE,168,3.4,4.8,38,0.00,,CLR,0.00,VWS V14.00,2013-03-10 18:54:00,
2013-03-10 14:59:00,58.7,33.1,30.15,NW,307,4.4,7.0,38,0.00,,CLR,0.00,VWS V14.00,2013-03-10 18:59:00,
2013-03-10 15:04:00,58.7,33.1,30.15,WNW,296,8.4,9.1,38,0.00,,CLR,0.00,VWS V14.00,2013-03-10 19:04:00,
2013-03-10 15:09:00,58.5,33.0,30.15,WSW,242,5.4,9.1,38,0.00,,CLR,0.00,VWS V14.00,2013-03-10 19:09:00,
2013-03-10 15:14:00,58.5,33.0,30.15,WNW,296,8.9,10.5,38,0.00,,CLR,0.00,VWS V14.00,2013-03-10 19:14:00,
2013-03-10 15:19:00,58.7,32.5,30.12,NW,314,5.4,7.5,37,0.00,,CLR,0.00,VWS V14.00,2013-03-10 19:19:00,
2013-03-10 15:24:00,59.2,33.0,30.12,West,274,6.4,7.0,37,0.00,,CLR,0.00,VWS V14.00,2013-03-10 19:24:00,
2013-03-10 15:29:00,59.2,33.0,30.12,NW,308,2.5,4.8,37,0.00,,CLR,0.00,VWS V14.00,2013-03-10 19:29:00,
2013-03-10 15:34:00,60.0,33.0,30.12,NW,313,3.9,7.5,36,0.00,,CLR,0.00,VWS V14.00,2013-03-10 19:34:00,
2013-03-10 15:39:00,59.2,33.0,30.12,WNW,288,3.4,7.5,37,0.00,,CLR,0.00,VWS V14.00,2013-03-10 19:39:00,
2013-03-10 15:45:00,59.4,33.1,30.12,NNW,331,5.9,7.0,37,0.00,,CLR,0.00,VWS V14.00,2013-03-10 19:45:00,
2013-03-10 15:50:00,60.0,33.0,30.12,NW,322,3.4,3.8,36,0.00,,CLR,0.00,VWS V14.00,2013-03-10 19:50:00,
2013-03-10 15:55:00,60.7,32.9,30.12,SSE,152,3.0,7.0,35,0.00,,CLR,0.00,VWS V14.00,2013-03-10 19:55:00,
2013-03-10 16:00:00,62.0,34.0,30.12,ENE,69,3.0,3.2,35,0.00,,CLR,0.00,VWS V14.00,2013-03-10 20:00:00,
2013-03-10 16:05:00,62.4,34.4,30.12,SE,136,3.0,4.8,35,0.00,,CLR,0.00,VWS V14.00,2013-03-10 20:05:00,
2013-03-10 16:10:00,62.5,33.8,30.12,East,96,4.4,4.8,34,0.00,,CLR,0.00,VWS V14.00,2013-03-10 20:10:00,
2013-03-10 16:15:00,62.2,33.5,30.12,SSE,151,4.4,4.8,34,0.00,,CLR,0.00,VWS V14.00,2013-03-10 20:15:00,
2013-03-10 16:21:00,61.8,33.2,30.12,East,90,3.0,3.8,34,0.00,,CLR,0.00,VWS V14.00,2013-03-10 20:21:00,
2013-03-10 16:26:00,61.8,33.2,30.12,SSE,151,3.9,4.3,34,0.00,,CLR,0.00,VWS V14.00,2013-03-10 20:26:00,
2013-03-10 16:32:00,62.5,33.8,30.12,ESE,108,3.4,5.9,34,0.00,,CLR,0.00,VWS V14.00,2013-03-10 20:32:00,
2013-03-10 16:37:00,62.2,33.5,30.12,ENE,72,3.9,4.3,34,0.00,,CLR,0.00,VWS V14.00,2013-03-10 20:37:00,
2013-03-10 16:42:00,61.4,32.8,30.12,East,100,3.0,3.8,34,0.00,,CLR,0.00,VWS V14.00,2013-03-10 20:42:00,
2013-03-10 16:47:00,61.2,32.7,30.12,East,96,4.4,4.8,34,0.00,,CLR,0.00,VWS V14.00,2013-03-10 20:47:00,
2013-03-10 16:52:00,61.6,33.0,30.12,ESE,113,3.0,3.8,34,0.00,,CLR,0.00,VWS V14.00,2013-03-10 20:52:00,
2013-03-10 16:57:00,61.2,32.7,30.12,SE,134,4.4,7.0,34,0.00,,CLR,0.00,VWS V14.00,2013-03-10 20:57:00,
2013-03-10 17:02:00,60.9,32.3,30.12,SE,144,6.9,9.7,34,0.00,,CLR,0.00,VWS V14.00,2013-03-10 21:02:00,
2013-03-10 17:07:00,61.2,32.7,30.12,ENE,75,3.0,3.8,34,0.00,,CLR,0.00,VWS V14.00,2013-03-10 21:07:00,
2013-03-10 17:12:00,61.8,32.4,30.12,SSE,167,6.9,9.9,33,0.00,,CLR,0.00,VWS V14.00,2013-03-10 21:12:00,
2013-03-10 17:17:00,62.0,33.3,30.12,East,93,3.0,3.2,34,0.00,,CLR,0.00,VWS V14.00,2013-03-10 21:17:00,
2013-03-10 17:22:00,62.2,33.5,30.12,South,185,3.4,4.3,34,0.00,,CLR,0.00,VWS V14.00,2013-03-10 21:22:00,
2013-03-10 17:28:00,61.1,31.8,30.12,South,190,6.9,7.5,33,0.00,,CLR,0.00,VWS V14.00,2013-03-10 21:28:00,
2013-03-10 17:33:00,60.5,32.0,30.12,South,179,3.0,7.0,34,0.00,,CLR,0.00,VWS V14.00,2013-03-10 21:33:00,
2013-03-10 17:38:00,60.0,31.5,30.12,SE,129,4.4,6.4,34,0.00,,CLR,0.00,VWS V14.00,2013-03-10 21:38:00,
2013-03-10 17:43:00,59.4,31.0,30.12,WSW,238,2.5,2.7,34,0.00,,CLR,0.00,VWS V14.00,2013-03-10 21:43:00,
2013-03-10 17:48:00,59.2,31.6,30.12,SSW,193,3.4,4.8,35,0.00,,CLR,0.00,VWS V14.00,2013-03-10 21:48:00,
2013-03-10 17:53:00,58.8,31.3,30.12,SSW,196,5.9,9.7,35,0.00,,CLR,0.00,VWS V14.00,2013-03-10 21:53:00,
2013-03-10 17:58:00,58.7,31.1,30.12,SE,143,5.9,6.4,35,0.00,,CLR,0.00,VWS V14.00,2013-03-10 21:58:00,
2013-03-10 18:04:00,58.1,30.6,30.12,SSE,155,3.4,7.0,35,0.00,,CLR,0.00,VWS V14.00,2013-03-10 22:04:00,
2013-03-10 18:09:00,58.1,30.6,30.12,SSE,160,3.0,4.8,35,0.00,,CLR,0.00,VWS V14.00,2013-03-10 22:09:00,
2013-03-10 18:14:00,58.5,30.9,30.12,East,98,5.9,6.4,35,0.00,,CLR,0.00,VWS V14.00,2013-03-10 22:14:00,
2013-03-10 18:19:00,58.7,31.1,30.12,East,100,4.4,6.4,35,0.00,,CLR,0.00,VWS V14.00,2013-03-10 22:19:00,
2013-03-10 18:24:00,58.5,30.9,30.12,ESE,122,3.9,4.3,35,0.00,,CLR,0.00,VWS V14.00,2013-03-10 22:24:00,
2013-03-10 18:29:00,58.1,30.6,30.12,NNE,20,3.0,5.9,35,0.00,,CLR,0.00,VWS V14.00,2013-03-10 22:29:00,
2013-03-10 18:34:00,57.5,30.1,30.12,ESE,106,3.4,3.8,35,0.00,,CLR,0.00,VWS V14.00,2013-03-10 22:34:00,
2013-03-10 18:39:00,57.0,29.6,30.12,SE,140,2.5,3.8,35,0.00,,CLR,0.00,VWS V14.00,2013-03-10 22:39:00,
2013-03-10 18:44:00,56.8,29.5,30.12,ENE,76,3.4,4.3,35,0.00,,CLR,0.00,VWS V14.00,2013-03-10 22:44:00,
2013-03-10 18:49:00,56.1,28.8,30.12,ENE,65,3.9,4.3,35,0.00,,CLR,0.00,VWS V14.00,2013-03-10 22:49:00,
2013-03-10 19:16:00,54.2,27.9,30.12,ENE,65,0.0,0.0,36,0.00,,CLR,0.00,VWS V14.00,2013-03-10 23:16:00,
2013-03-10 19:21:00,53.8,27.5,30.15,ENE,72,0.0,3.2,36,0.00,,CLR,0.00,VWS V14.00,2013-03-10 23:21:00,
2013-03-10 19:26:00,53.7,27.4,30.15,ENE,72,2.5,3.2,36,0.00,,CLR,0.00,VWS V14.00,2013-03-10 23:26:00,
2013-03-10 19:31:00,53.5,27.9,30.15,SSE,166,0.0,0.0,37,0.00,,CLR,0.00,VWS V14.00,2013-03-10 23:31:00,
2013-03-10 19:37:00,53.1,27.5,30.12,SSE,166,0.0,0.0,37,0.00,,CLR,0.00,VWS V14.00,2013-03-10 23:37:00,
2013-03-10 19:42:00,53.1,27.5,30.12,SSE,166,0.0,0.0,37,0.00,,CLR,0.00,VWS V14.00,2013-03-10 23:42:00,
2013-03-10 19:47:00,52.7,27.2,30.12,SSE,166,0.0,0.0,37,0.00,,CLR,0.00,VWS V14.00,2013-03-10 23:47:00,
2013-03-10 19:52:00,52.3,26.9,30.12,SSE,166,0.0,0.0,37,0.00,,CLR,0.00,VWS V14.00,2013-03-10 23:52:00,
2013-03-10 19:57:00,52.2,26.7,30.12,SSE,166,0.0,0.0,37,0.00,,CLR,0.00,VWS V14.00,2013-03-10 23:57:00,
2013-03-10 20:02:00,52.0,26.5,30.12,SSE,166,0.0,0.0,37,0.00,,CLR,0.00,VWS V14.00,2013-03-11 00:02:00,
2013-03-10 20:07:00,51.8,27.0,30.15,SSE,166,0.0,0.0,38,0.00,,CLR,0.00,VWS V14.00,2013-03-11 00:07:00,
2013-03-10 20:12:00,51.6,26.9,30.15,SSE,166,0.0,0.0,38,0.00,,CLR,0.00,VWS V14.00,2013-03-11 00:12:00,
2013-03-10 20:17:00,51.2,26.5,30.15,SSE,166,0.0,0.0,38,0.00,,CLR,0.00,VWS V14.00,2013-03-11 00:17:00,
2013-03-10 20:22:00,50.7,26.0,30.15,East,98,3.0,3.2,38,0.00,,CLR,0.00,VWS V14.00,2013-03-11 00:22:00,
2013-03-10 20:27:00,50.1,26.1,30.15,East,84,0.0,0.0,39,0.00,,CLR,0.00,VWS V14.00,2013-03-11 00:27:00,
2013-03-10 20:32:00,49.6,25.6,30.15,NE,47,0.0,0.0,39,0.00,,CLR,0.00,VWS V14.00,2013-03-11 00:32:00,
2013-03-10 20:37:00,49.8,25.8,30.15,NE,36,2.5,2.7,39,0.00,,CLR,0.00,VWS V14.00,2013-03-11 00:37:00,
2013-03-10 20:42:00,49.2,25.9,30.15,NE,36,2.5,2.7,40,0.00,,CLR,0.00,VWS V14.00,2013-03-11 00:42:00,
2013-03-10 20:47:00,49.0,25.8,30.15,SSE,155,3.4,3.8,40,0.00,,CLR,0.00,VWS V14.00,2013-03-11 00:47:00,
2013-03-10 20:52:00,49.0,26.4,30.15,South,170,0.0,0.0,41,0.00,,CLR,0.00,VWS V14.00,2013-03-11 00:52:00,
2013-03-10 20:58:00,48.7,26.0,30.15,East,90,4.4,4.8,41,0.00,,CLR,0.00,VWS V14.00,2013-03-11 00:58:00,
2013-03-10 21:03:00,48.5,26.4,30.15,NE,55,2.5,2.7,42,0.00,,CLR,0.00,VWS V14.00,2013-03-11 01:03:00,
2013-03-10 21:08:00,48.1,26.7,30.15,NE,50,2.5,2.7,43,0.00,,CLR,0.00,VWS V14.00,2013-03-11 01:08:00,
2013-03-10 21:13:00,47.5,26.7,30.15,ENE,62,2.5,3.8,44,0.00,,CLR,0.00,VWS V14.00,2013-03-11 01:13:00,
2013-03-10 21:18:00,47.7,26.9,30.15,ENE,62,0.0,0.0,44,0.00,,CLR,0.00,VWS V14.00,2013-03-11 01:18:00,
2013-03-10 21:23:00,47.3,26.5,30.15,ENE,62,0.0,0.0,44,0.00,,CLR,0.00,VWS V14.00,2013-03-11 01:23:00,
2013-03-10 21:28:00,47.0,26.8,30.15,East,101,2.5,3.2,45,0.00,,CLR,0.00,VWS V14.00,2013-03-11 01:28:00,
2013-03-10 21:33:00,46.6,27.0,30.15,East,101,3.0,3.2,46,0.00,,CLR,0.00,VWS V14.00,2013-03-11 01:33:00,
2013-03-10 21:38:00,46.2,27.1,30.15,North,0,2.5,3.2,47,0.00,,CLR,0.00,VWS V14.00,2013-03-11 01:38:00,
2013-03-10 21:43:00,46.2,27.1,30.15,NNE,19,0.0,0.0,47,0.00,,CLR,0.00,VWS V14.00,2013-03-11 01:43:00,
2013-03-10 21:48:00,45.9,27.3,30.15,NNE,19,0.0,0.0,48,0.00,,CLR,0.00,VWS V14.00,2013-03-11 01:48:00,
2013-03-10 21:53:00,45.9,27.3,30.15,NE,35,0.0,0.0,48,0.00,,CLR,0.00,VWS V14.00,2013-03-11 01:53:00,
2013-03-10 21:58:00,45.9,27.3,30.15,NE,37,3.4,4.3,48,0.00,,CLR,0.00,VWS V14.00,2013-03-11 01:58:00,
2013-03-10 22:03:00,45.7,27.1,30.15,East,83,0.0,2.7,48,0.00,,CLR,0.00,VWS V14.00,2013-03-11 02:03:00,
2013-03-10 22:09:00,45.3,26.8,30.15,East,84,2.5,2.7,48,0.00,,CLR,0.00,VWS V14.00,2013-03-11 02:09:00,
2013-03-10 22:14:00,45.1,26.6,30.15,East,84,2.5,2.7,48,0.00,,CLR,0.00,VWS V14.00,2013-03-11 02:14:00,
2013-03-10 22:19:00,45.5,27.5,30.15,East,83,2.5,3.2,49,0.00,,CLR,0.00,VWS V14.00,2013-03-11 02:19:00,
2013-03-10 22:24:00,45.5,27.5,30.15,East,95,4.4,4.8,49,0.00,,CLR,0.00,VWS V14.00,2013-03-11 02:24:00,
2013-03-10 22:29:00,44.6,26.6,30.15,East,90,0.0,2.7,49,0.00,,CLR,0.00,VWS V14.00,2013-03-11 02:29:00,
2013-03-10 22:34:00,44.8,27.3,30.15,East,90,0.0,0.0,50,0.00,,CLR,0.00,VWS V14.00,2013-03-11 02:34:00,
2013-03-10 22:39:00,44.6,27.1,30.15,SSE,165,0.0,2.7,50,0.00,,CLR,0.00,VWS V14.00,2013-03-11 02:39:00,
2013-03-10 22:44:00,44.4,26.4,30.15,SSE,165,0.0,0.0,49,0.00,,CLR,0.00,VWS V14.00,2013-03-11 02:44:00,
2013-03-10 22:49:00,43.8,26.4,30.15,NW,325,3.4,4.3,50,0.00,,CLR,0.00,VWS V14.00,2013-03-11 02:49:00,
2013-03-10 22:54:00,43.1,26.2,30.15,NW,323,0.0,3.2,51,0.00,,CLR,0.00,VWS V14.00,2013-03-11 02:54:00,
2013-03-10 22:59:00,43.1,26.2,30.15,NW,323,0.0,0.0,51,0.00,,CLR,0.00,VWS V14.00,2013-03-11 02:59:00,
2013-03-10 23:04:00,43.5,27.0,30.15,ENE,75,3.9,4.3,52,0.00,,CLR,0.00,VWS V14.00,2013-03-11 03:04:00,
2013-03-10 23:10:00,43.1,26.7,30.15,ENE,75,0.0,3.2,52,0.00,,CLR,0.00,VWS V14.00,2013-03-11 03:10:00,
2013-03-10 23:15:00,43.3,26.8,30.15,ENE,72,2.5,3.2,52,0.00,,CLR,0.00,VWS V14.00,2013-03-11 03:15:00,
2013-03-10 23:20:00,42.7,26.8,30.15,ENE,64,3.0,3.2,53,0.00,,CLR,0.00,VWS V14.00,2013-03-11 03:20:00,
2013-03-10 23:25:00,42.5,26.6,30.15,NNE,22,0.0,0.0,53,0.00,,CLR,0.00,VWS V14.00,2013-03-11 03:25:00,
2013-03-10 23:30:00,42.5,26.6,30.15,NNE,22,0.0,0.0,53,0.00,,CLR,0.00,VWS V14.00,2013-03-11 03:30:00,
2013-03-10 23:35:00,42.3,26.9,30.15,NNE,22,0.0,0.0,54,0.00,,CLR,0.00,VWS V14.00,2013-03-11 03:35:00,
2013-03-10 23:40:00,42.0,27.0,30.15,NNE,22,0.0,0.0,55,0.00,,CLR,0.00,VWS V14.00,2013-03-11 03:40:00,
2013-03-10 23:45:00,41.8,26.8,30.15,East,89,0.0,0.0,55,0.00,,CLR,0.00,VWS V14.00,2013-03-11 03:45:00,
2013-03-10 23:50:00,41.8,26.8,30.15,East,89,0.0,0.0,55,0.00,,CLR,0.00,VWS V14.00,2013-03-11 03:50:00,
2013-03-10 23:55:00,41.6,26.6,30.15,East,89,0.0,2.7,55,0.00,,CLR,0.00,VWS V14.00,2013-03-11 03:55:00,